Kleine Brogel, Belgium
Current Conditions -  °F | °C
As of 2:55 PM on Saturday 25 Oct 2014 (Local Time) from EBBL Reporting Station
Overcast Overcast  
Wind Chill: 55°   Ceiling: 400
Heat Index: 55°   Visibility: 2mi
Dew Point: 55°   Wind: 7mph
Humidity: 100%   Direction: 240°WSW
Pressure: 30.09"   Gusts: NA
Location:  51.17°N, 5.45°E
Report Text: EBBL 251255Z AUTO 24006KT 3300 BKN004/// OVC006/// 13/13 Q1019 YLO
Loading
Personal Weather Stations






























Interactive Weather Map
Tropical Storm Tracking
New forecast layout! Learn more

10-Day Weather Forecast

Advertisements
Track Severe Weather on mobile